createdAt,value
2019-04-05T00:01:13.976Z,89.20
2019-04-05T00:06:19.804Z,89.20
2019-04-05T00:11:25.265Z,89.10
2019-04-05T00:16:30.530Z,89.10
2019-04-05T00:21:35.991Z,89.00
2019-04-05T00:26:41.374Z,89.60
2019-04-05T00:31:46.894Z,88.90
2019-04-05T00:36:52.380Z,88.90
2019-04-05T00:41:57.819Z,89.10
2019-04-05T00:47:03.181Z,88.80
2019-04-05T00:52:08.752Z,89.70
2019-04-05T00:57:14.098Z,89.60
2019-04-05T01:02:19.722Z,89.70
2019-04-05T01:07:25.345Z,90.00
2019-04-05T01:12:32.102Z,90.10
2019-04-05T01:17:38.312Z,90.20
2019-04-05T01:22:44.795Z,90.30
2019-04-05T01:27:50.886Z,90.30
2019-04-05T01:32:56.422Z,90.30
2019-04-05T01:38:02.796Z,90.40
2019-04-05T01:43:08.286Z,90.40
2019-04-05T01:48:13.852Z,90.50
2019-04-05T01:53:19.958Z,90.50
2019-04-05T01:58:26.852Z,90.70
2019-04-05T02:03:32.294Z,90.70
2019-04-05T02:08:37.987Z,90.80
2019-04-05T02:13:43.417Z,90.90
2019-04-05T02:18:48.983Z,90.90
2019-04-05T02:23:54.568Z,91.00
2019-04-05T02:29:00.500Z,91.00
2019-04-05T02:34:06.387Z,91.10
2019-04-05T02:39:12.050Z,91.30
2019-04-05T02:44:18.062Z,91.40
2019-04-05T02:49:25.986Z,91.50
2019-04-05T02:54:32.398Z,91.50
2019-04-05T02:59:39.205Z,91.60
2019-04-05T03:04:45.110Z,91.70
2019-04-05T03:09:51.363Z,91.70
2019-04-05T03:14:57.783Z,91.80
2019-04-05T03:20:04.205Z,92.20
2019-04-05T03:25:09.950Z,91.90
2019-04-05T03:30:15.686Z,92.00
2019-04-05T03:35:21.744Z,92.10
2019-04-05T03:40:27.664Z,91.90
2019-04-05T03:45:33.215Z,91.90
2019-04-05T03:50:39.100Z,91.90
2019-04-05T03:55:45.048Z,92.00
2019-04-05T04:00:50.826Z,91.90
2019-04-05T04:05:56.509Z,92.10
2019-04-05T04:11:02.132Z,92.10
2019-04-05T04:16:08.409Z,92.10
2019-04-05T04:21:25.383Z,92.50
2019-04-05T04:26:31.650Z,92.40
2019-04-05T04:31:37.440Z,92.40
2019-04-05T04:36:43.084Z,92.50
2019-04-05T04:41:48.863Z,92.40
2019-04-05T04:46:54.547Z,92.50
2019-04-05T04:52:00.190Z,92.80
2019-04-05T04:57:06.984Z,92.60
2019-04-05T05:02:12.739Z,93.00
2019-04-05T05:07:18.454Z,92.70
2019-04-05T05:12:25.089Z,93.10
2019-04-05T05:17:38.362Z,92.60
2019-04-05T05:22:38.190Z,92.70
2019-04-05T05:27:44.031Z,92.70
2019-04-05T05:32:49.732Z,92.70
2019-04-05T05:37:55.547Z,92.70
2019-04-05T05:43:01.119Z,92.60
2019-04-05T05:48:06.839Z,92.50
2019-04-05T05:53:12.700Z,92.60
2019-04-05T05:58:18.151Z,92.60
2019-04-05T06:03:23.808Z,92.50
2019-04-05T06:08:29.486Z,92.50
2019-04-05T06:13:34.899Z,92.40
2019-04-05T06:18:40.560Z,92.40
2019-04-05T06:23:46.067Z,92.40
2019-04-05T06:28:51.663Z,92.40
2019-04-05T06:33:57.240Z,92.40
2019-04-05T06:39:02.813Z,92.40
2019-04-05T06:44:08.282Z,92.40
2019-04-05T06:49:13.721Z,92.30
2019-04-05T06:54:19.418Z,92.20
2019-04-05T06:59:24.816Z,92.20
2019-04-05T07:04:31.237Z,92.10
2019-04-05T07:09:37.051Z,92.10
2019-04-05T07:14:42.751Z,92.00
2019-04-05T07:19:48.223Z,91.90
2019-04-05T07:24:53.699Z,91.80
2019-04-05T07:29:59.215Z,91.70
2019-04-05T07:35:04.616Z,91.50
2019-04-05T07:40:10.377Z,91.30
2019-04-05T07:50:20.779Z,90.60
2019-04-05T07:55:28.784Z,90.80
2019-04-05T08:00:59.611Z,90.80
2019-04-05T08:06:05.317Z,90.50
2019-04-05T08:11:11.345Z,90.30
2019-04-05T08:16:17.223Z,90.20
2019-04-05T08:21:22.673Z,90.20
2019-04-05T08:26:28.634Z,90.20
2019-04-05T08:31:34.213Z,90.00
2019-04-05T08:36:39.764Z,89.80
2019-04-05T08:41:45.143Z,89.10
2019-04-05T08:46:50.704Z,89.20
2019-04-05T08:51:56.255Z,88.50
2019-04-05T08:57:01.995Z,88.20
2019-04-05T09:02:07.500Z,88.00
2019-04-05T09:07:13.136Z,87.40
2019-04-05T09:12:18.614Z,87.30
2019-04-05T09:17:24.085Z,86.80
2019-04-05T09:22:29.782Z,86.30
2019-04-05T09:27:35.340Z,85.00
2019-04-05T09:32:40.990Z,84.90
2019-04-05T09:37:46.640Z,83.30
2019-04-05T09:42:52.191Z,84.20
2019-04-05T09:47:57.777Z,83.30
2019-04-05T09:53:03.353Z,82.90
2019-04-05T09:58:10.190Z,82.80
2019-04-05T10:03:15.804Z,81.20
2019-04-05T10:08:21.381Z,81.50
2019-04-05T10:13:26.810Z,80.50
2019-04-05T10:18:32.409Z,80.60
2019-04-05T10:23:37.879Z,79.60
2019-04-05T10:28:43.453Z,77.20
2019-04-05T10:33:48.839Z,76.80
2019-04-05T10:38:54.257Z,76.40
2019-04-05T10:43:59.720Z,74.40
2019-04-05T10:49:05.478Z,74.40
2019-04-05T10:54:11.047Z,74.30
2019-04-05T10:59:16.480Z,73.60
2019-04-05T11:04:22.182Z,71.60
2019-04-05T11:09:27.895Z,71.20
2019-04-05T11:14:33.486Z,71.00
2019-04-05T11:19:39.061Z,70.10
2019-04-05T11:24:44.535Z,68.50
2019-04-05T11:29:50.273Z,67.30
2019-04-05T11:34:56.041Z,67.50
2019-04-05T11:40:01.806Z,65.60
2019-04-05T11:45:09.249Z,61.00
2019-04-05T11:50:16.737Z,61.70
2019-04-05T11:55:22.224Z,60.50
2019-04-05T12:00:43.104Z,60.60
2019-04-05T12:05:55.295Z,59.70
2019-04-05T12:11:00.966Z,58.90
2019-04-05T12:16:07.942Z,59.90
2019-04-05T12:21:13.992Z,59.50
2019-04-05T12:26:19.693Z,58.80
2019-04-05T12:31:26.373Z,57.80
2019-04-05T12:36:32.066Z,57.60
2019-04-05T12:41:38.512Z,56.60
2019-04-05T12:46:45.860Z,53.70
2019-04-05T12:51:51.661Z,53.60
2019-04-05T12:56:58.049Z,54.30
2019-04-05T13:02:04.007Z,53.80
2019-04-05T13:07:09.576Z,53.80
2019-04-05T13:12:15.180Z,52.90
2019-04-05T13:17:20.801Z,53.40
2019-04-05T13:22:26.305Z,53.10
2019-04-05T13:27:31.768Z,52.80
2019-04-05T13:32:37.239Z,52.20
2019-04-05T13:37:42.797Z,51.40
2019-04-05T13:42:48.360Z,51.10
2019-04-05T13:47:53.923Z,52.70
2019-04-05T13:52:59.520Z,53.60
2019-04-05T13:58:05.071Z,53.00
2019-04-05T14:03:10.628Z,53.20
2019-04-05T14:08:16.168Z,53.50
2019-04-05T14:13:23.124Z,52.90
2019-04-05T14:18:28.637Z,52.20
2019-04-05T14:23:34.267Z,52.80
2019-04-05T14:28:39.789Z,52.30
2019-04-05T14:33:45.238Z,51.40
2019-04-05T14:38:51.032Z,52.10
2019-04-05T14:43:56.470Z,51.80
2019-04-05T14:49:02.069Z,52.30
2019-04-05T14:54:09.854Z,51.60
2019-04-05T14:59:14.887Z,52.40
2019-04-05T15:04:20.466Z,52.00
2019-04-05T15:09:26.047Z,53.00
2019-04-05T15:14:31.425Z,52.20
2019-04-05T15:19:37.088Z,52.70
2019-04-05T15:24:44.578Z,52.50
2019-04-05T15:29:49.977Z,52.30
2019-04-05T15:34:56.608Z,49.70
2019-04-05T15:40:02.612Z,50.50
2019-04-05T15:45:10.089Z,50.00
2019-04-05T15:50:15.806Z,50.00
2019-04-05T15:55:21.457Z,51.20
2019-04-05T16:00:45.802Z,51.00
2019-04-05T16:05:51.508Z,51.40
2019-04-05T16:10:57.265Z,51.80
2019-04-05T16:16:02.762Z,52.30
2019-04-05T16:21:08.265Z,52.40
2019-04-05T16:26:13.880Z,52.50
2019-04-05T16:31:19.183Z,52.60
2019-04-05T16:36:24.850Z,52.60
2019-04-05T16:41:30.588Z,52.80
2019-04-05T16:46:36.217Z,53.00
2019-04-05T16:51:41.851Z,53.20
2019-04-05T16:56:47.589Z,53.60
2019-04-05T17:01:53.294Z,55.20
2019-04-05T17:06:59.473Z,57.30
2019-04-05T17:12:05.178Z,58.70
2019-04-05T17:17:10.852Z,59.70
2019-04-05T17:22:16.539Z,60.70
2019-04-05T17:27:22.276Z,61.50
2019-04-05T17:32:27.722Z,62.20
2019-04-05T17:37:33.416Z,62.60
2019-04-05T17:42:38.920Z,63.60
2019-04-05T17:47:44.605Z,64.00
2019-04-05T17:52:50.268Z,64.70
2019-04-05T17:57:57.014Z,65.60
2019-04-05T18:03:02.642Z,67.10
2019-04-05T18:08:08.491Z,67.70
2019-04-05T18:13:14.215Z,68.60
2019-04-05T18:18:20.256Z,69.90
2019-04-05T18:23:26.017Z,70.70
2019-04-05T18:28:31.912Z,71.70
2019-04-05T18:33:37.614Z,72.60
2019-04-05T18:38:43.302Z,73.20
2019-04-05T18:43:48.917Z,73.90
2019-04-05T18:48:54.712Z,74.80
2019-04-05T18:54:00.489Z,75.40
2019-04-05T18:59:06.150Z,75.90
2019-04-05T19:04:11.588Z,76.40
2019-04-05T19:09:17.697Z,76.80
2019-04-05T19:14:23.350Z,77.20
2019-04-05T19:19:29.326Z,77.80
2019-04-05T19:24:34.941Z,78.30
2019-04-05T19:29:40.599Z,78.40
2019-04-05T19:50:08.560Z,81.30
2019-04-05T19:55:23.244Z,82.00
2019-04-05T20:00:32.258Z,82.80
2019-04-05T20:05:38.171Z,83.00
2019-04-05T20:10:43.734Z,83.90
2019-04-05T20:15:49.504Z,84.50
2019-04-05T20:20:55.234Z,85.80
2019-04-05T20:26:00.883Z,86.30
2019-04-05T20:31:06.461Z,86.70
2019-04-05T20:36:12.061Z,87.70
2019-04-05T20:41:17.624Z,88.10
2019-04-05T20:46:23.355Z,88.00
2019-04-05T20:51:29.109Z,88.50
2019-04-05T20:56:34.637Z,89.30
2019-04-05T21:01:40.289Z,89.10
2019-04-05T21:06:45.959Z,89.90
2019-04-05T21:11:51.505Z,90.10
2019-04-05T21:16:57.115Z,90.30
2019-04-05T21:22:02.843Z,90.10
2019-04-05T21:27:08.524Z,90.30
2019-04-05T21:32:14.068Z,90.60
2019-04-05T21:37:19.831Z,90.80
2019-04-05T21:42:25.683Z,90.90
2019-04-05T21:47:31.353Z,91.00
2019-04-05T21:52:37.038Z,91.40
2019-04-05T21:57:42.850Z,91.60
2019-04-05T22:02:48.418Z,91.70
2019-04-05T22:07:54.068Z,91.70
2019-04-05T22:13:01.002Z,91.80
2019-04-05T22:18:07.207Z,91.90
2019-04-05T22:23:12.896Z,92.10
2019-04-05T22:28:18.513Z,92.20
2019-04-05T22:33:24.193Z,92.50
2019-04-05T22:38:29.885Z,92.40
2019-04-05T22:43:35.618Z,92.90
2019-04-05T22:48:41.176Z,92.80
2019-04-05T22:53:46.902Z,92.80
2019-04-05T22:58:52.617Z,94.10
2019-04-05T23:03:58.148Z,93.70
2019-04-05T23:09:04.682Z,93.50
2019-04-05T23:14:11.065Z,93.50
2019-04-05T23:19:16.762Z,93.50
2019-04-05T23:24:22.572Z,93.60
2019-04-05T23:29:28.135Z,93.70
2019-04-05T23:34:33.900Z,93.70
2019-04-05T23:39:39.388Z,93.60
2019-04-05T23:44:45.039Z,93.80
2019-04-05T23:49:50.572Z,94.00
2019-04-05T23:54:56.322Z,94.10
